sensor_id;sensor_type;location;lat;lon;timestamp;P1;durP1;ratioP1;P2;durP2;ratioP2
78674;SDS011;67990;59.826;30.108;2023-04-25T00:00:34;21.10;;;11.80;;
78674;SDS011;67990;59.826;30.108;2023-04-25T00:03:01;24.27;;;12.60;;
78674;SDS011;67990;59.826;30.108;2023-04-25T00:05:28;23.25;;;12.40;;
78674;SDS011;67990;59.826;30.108;2023-04-25T00:07:55;24.45;;;12.35;;
78674;SDS011;67990;59.826;30.108;2023-04-25T00:10:23;27.08;;;13.80;;
78674;SDS011;67990;59.826;30.108;2023-04-25T00:12:50;27.37;;;13.37;;
78674;SDS011;67990;59.826;30.108;2023-04-25T00:15:18;26.30;;;13.35;;
78674;SDS011;67990;59.826;30.108;2023-04-25T00:18:04;25.65;;;12.95;;
78674;SDS011;67990;59.826;30.108;2023-04-25T00:20:50;23.73;;;12.20;;
78674;SDS011;67990;59.826;30.108;2023-04-25T00:23:17;20.58;;;11.55;;
78674;SDS011;67990;59.826;30.108;2023-04-25T00:25:44;18.50;;;10.53;;
78674;SDS011;67990;59.826;30.108;2023-04-25T00:28:11;18.73;;;11.40;;
78674;SDS011;67990;59.826;30.108;2023-04-25T00:30:56;23.65;;;12.85;;
78674;SDS011;67990;59.826;30.108;2023-04-25T00:33:25;23.40;;;13.02;;
78674;SDS011;67990;59.826;30.108;2023-04-25T00:35:52;25.02;;;12.98;;
78674;SDS011;67990;59.826;30.108;2023-04-25T00:38:19;23.10;;;12.53;;
78674;SDS011;67990;59.826;30.108;2023-04-25T00:40:46;26.80;;;13.07;;
78674;SDS011;67990;59.826;30.108;2023-04-25T00:43:50;22.27;;;12.75;;
78674;SDS011;67990;59.826;30.108;2023-04-25T00:46:18;19.60;;;11.25;;
78674;SDS011;67990;59.826;30.108;2023-04-25T00:48:46;19.25;;;11.45;;
78674;SDS011;67990;59.826;30.108;2023-04-25T00:51:50;20.10;;;11.50;;
78674;SDS011;67990;59.826;30.108;2023-04-25T00:54:17;22.15;;;11.13;;
78674;SDS011;67990;59.826;30.108;2023-04-25T00:59:30;22.73;;;11.55;;
78674;SDS011;67990;59.826;30.108;2023-04-25T01:02:16;21.35;;;11.07;;
78674;SDS011;67990;59.826;30.108;2023-04-25T01:04:45;21.53;;;11.47;;
78674;SDS011;67990;59.826;30.108;2023-04-25T01:07:32;19.42;;;11.13;;
78674;SDS011;67990;59.826;30.108;2023-04-25T01:10:01;20.88;;;11.15;;
78674;SDS011;67990;59.826;30.108;2023-04-25T01:12:29;20.33;;;11.25;;
78674;SDS011;67990;59.826;30.108;2023-04-25T01:17:41;18.00;;;10.20;;
78674;SDS011;67990;59.826;30.108;2023-04-25T01:20:11;19.10;;;10.07;;
78674;SDS011;67990;59.826;30.108;2023-04-25T01:22:41;19.80;;;10.88;;
78674;SDS011;67990;59.826;30.108;2023-04-25T01:25:08;14.40;;;8.70;;
78674;SDS011;67990;59.826;30.108;2023-04-25T01:27:36;15.57;;;8.20;;
78674;SDS011;67990;59.826;30.108;2023-04-25T01:30:05;16.87;;;8.60;;
78674;SDS011;67990;59.826;30.108;2023-04-25T01:32:34;14.82;;;7.40;;
78674;SDS011;67990;59.826;30.108;2023-04-25T01:35:04;17.27;;;7.40;;
78674;SDS011;67990;59.826;30.108;2023-04-25T01:37:35;14.65;;;7.43;;
78674;SDS011;67990;59.826;30.108;2023-04-25T01:40:04;17.02;;;7.00;;
78674;SDS011;67990;59.826;30.108;2023-04-25T01:42:33;15.07;;;7.23;;
78674;SDS011;67990;59.826;30.108;2023-04-25T01:45:01;13.48;;;6.88;;
78674;SDS011;67990;59.826;30.108;2023-04-25T01:47:47;15.30;;;7.05;;
78674;SDS011;67990;59.826;30.108;2023-04-25T01:50:50;12.60;;;6.88;;
78674;SDS011;67990;59.826;30.108;2023-04-25T01:53:18;16.02;;;6.35;;
78674;SDS011;67990;59.826;30.108;2023-04-25T01:55:47;13.73;;;6.03;;
78674;SDS011;67990;59.826;30.108;2023-04-25T01:58:17;14.13;;;6.30;;
78674;SDS011;67990;59.826;30.108;2023-04-25T02:01:04;13.68;;;6.45;;
78674;SDS011;67990;59.826;30.108;2023-04-25T02:03:39;12.68;;;5.63;;
78674;SDS011;67990;59.826;30.108;2023-04-25T02:06:12;13.48;;;5.95;;
78674;SDS011;67990;59.826;30.108;2023-04-25T02:11:49;13.63;;;5.95;;
78674;SDS011;67990;59.826;30.108;2023-04-25T02:14:35;13.75;;;5.82;;
78674;SDS011;67990;59.826;30.108;2023-04-25T02:17:14;12.15;;;5.53;;
78674;SDS011;67990;59.826;30.108;2023-04-25T02:20:01;10.63;;;5.38;;
78674;SDS011;67990;59.826;30.108;2023-04-25T02:22:47;10.17;;;4.90;;
78674;SDS011;67990;59.826;30.108;2023-04-25T02:25:15;13.82;;;5.55;;
78674;SDS011;67990;59.826;30.108;2023-04-25T02:28:02;9.75;;;5.55;;
78674;SDS011;67990;59.826;30.108;2023-04-25T02:36:18;8.47;;;4.47;;
78674;SDS011;67990;59.826;30.108;2023-04-25T02:38:45;9.30;;;5.00;;
78674;SDS011;67990;59.826;30.108;2023-04-25T02:41:30;9.82;;;4.75;;
78674;SDS011;67990;59.826;30.108;2023-04-25T02:43:59;8.43;;;4.43;;
78674;SDS011;67990;59.826;30.108;2023-04-25T02:46:26;9.98;;;4.78;;
78674;SDS011;67990;59.826;30.108;2023-04-25T02:49:11;13.03;;;4.40;;
78674;SDS011;67990;59.826;30.108;2023-04-25T02:51:38;10.18;;;4.30;;
78674;SDS011;67990;59.826;30.108;2023-04-25T02:54:05;10.23;;;4.43;;
78674;SDS011;67990;59.826;30.108;2023-04-25T02:57:08;9.38;;;4.40;;
78674;SDS011;67990;59.826;30.108;2023-04-25T02:59:38;11.45;;;4.35;;
78674;SDS011;67990;59.826;30.108;2023-04-25T03:02:23;8.00;;;4.03;;
78674;SDS011;67990;59.826;30.108;2023-04-25T03:04:50;9.88;;;5.03;;
78674;SDS011;67990;59.826;30.108;2023-04-25T03:07:35;11.63;;;4.32;;
78674;SDS011;67990;59.826;30.108;2023-04-25T03:10:20;14.55;;;4.45;;
78674;SDS011;67990;59.826;30.108;2023-04-25T03:12:47;10.23;;;4.15;;
78674;SDS011;67990;59.826;30.108;2023-04-25T03:15:34;13.47;;;4.63;;
78674;SDS011;67990;59.826;30.108;2023-04-25T03:18:01;8.52;;;4.40;;
78674;SDS011;67990;59.826;30.108;2023-04-25T03:20:47;9.88;;;4.60;;
78674;SDS011;67990;59.826;30.108;2023-04-25T03:23:33;8.25;;;3.92;;
78674;SDS011;67990;59.826;30.108;2023-04-25T03:29:22;9.57;;;4.17;;
78674;SDS011;67990;59.826;30.108;2023-04-25T03:31:53;7.77;;;3.80;;
78674;SDS011;67990;59.826;30.108;2023-04-25T03:34:20;10.70;;;4.20;;
78674;SDS011;67990;59.826;30.108;2023-04-25T03:36:48;9.65;;;4.03;;
78674;SDS011;67990;59.826;30.108;2023-04-25T03:39:15;10.32;;;4.40;;
78674;SDS011;67990;59.826;30.108;2023-04-25T03:41:47;8.32;;;3.65;;
78674;SDS011;67990;59.826;30.108;2023-04-25T03:44:14;7.87;;;3.67;;
78674;SDS011;67990;59.826;30.108;2023-04-25T03:46:41;10.68;;;4.10;;
78674;SDS011;67990;59.826;30.108;2023-04-25T03:49:10;9.88;;;3.83;;
78674;SDS011;67990;59.826;30.108;2023-04-25T03:52:06;10.75;;;3.40;;
78674;SDS011;67990;59.826;30.108;2023-04-25T03:54:37;10.68;;;3.60;;
78674;SDS011;67990;59.826;30.108;2023-04-25T03:57:15;8.80;;;3.63;;
78674;SDS011;67990;59.826;30.108;2023-04-25T03:59:42;11.30;;;3.83;;
78674;SDS011;67990;59.826;30.108;2023-04-25T04:02:12;8.65;;;3.58;;
78674;SDS011;67990;59.826;30.108;2023-04-25T04:04:42;7.65;;;3.35;;
78674;SDS011;67990;59.826;30.108;2023-04-25T04:07:28;8.18;;;3.67;;
78674;SDS011;67990;59.826;30.108;2023-04-25T04:09:58;7.47;;;3.27;;
78674;SDS011;67990;59.826;30.108;2023-04-25T04:12:31;8.15;;;3.55;;
78674;SDS011;67990;59.826;30.108;2023-04-25T04:14:58;9.63;;;3.47;;
78674;SDS011;67990;59.826;30.108;2023-04-25T04:17:26;13.52;;;3.95;;
78674;SDS011;67990;59.826;30.108;2023-04-25T04:19:54;10.70;;;3.55;;
78674;SDS011;67990;59.826;30.108;2023-04-25T04:22:22;8.23;;;3.30;;
78674;SDS011;67990;59.826;30.108;2023-04-25T04:24:51;8.13;;;3.03;;
78674;SDS011;67990;59.826;30.108;2023-04-25T04:27:31;10.57;;;3.50;;
78674;SDS011;67990;59.826;30.108;2023-04-25T04:30:26;8.20;;;3.42;;
78674;SDS011;67990;59.826;30.108;2023-04-25T04:32:59;12.02;;;3.60;;
78674;SDS011;67990;59.826;30.108;2023-04-25T04:35:29;8.50;;;3.63;;
78674;SDS011;67990;59.826;30.108;2023-04-25T04:38:17;8.60;;;3.92;;
78674;SDS011;67990;59.826;30.108;2023-04-25T04:43:48;8.27;;;3.70;;
78674;SDS011;67990;59.826;30.108;2023-04-25T04:46:34;7.95;;;4.15;;
78674;SDS011;67990;59.826;30.108;2023-04-25T04:49:29;9.27;;;4.00;;
78674;SDS011;67990;59.826;30.108;2023-04-25T04:52:09;10.27;;;3.80;;
78674;SDS011;67990;59.826;30.108;2023-04-25T04:54:53;10.05;;;3.72;;
78674;SDS011;67990;59.826;30.108;2023-04-25T04:57:49;8.50;;;4.15;;
78674;SDS011;67990;59.826;30.108;2023-04-25T05:00:35;8.77;;;3.58;;
78674;SDS011;67990;59.826;30.108;2023-04-25T05:03:11;9.20;;;3.33;;
78674;SDS011;67990;59.826;30.108;2023-04-25T05:06:25;7.60;;;3.10;;
78674;SDS011;67990;59.826;30.108;2023-04-25T05:09:16;7.50;;;3.47;;
78674;SDS011;67990;59.826;30.108;2023-04-25T05:12:03;8.30;;;3.78;;
78674;SDS011;67990;59.826;30.108;2023-04-25T05:14:49;8.35;;;4.10;;
78674;SDS011;67990;59.826;30.108;2023-04-25T05:17:42;7.63;;;3.47;;
78674;SDS011;67990;59.826;30.108;2023-04-25T05:20:39;7.67;;;3.37;;
78674;SDS011;67990;59.826;30.108;2023-04-25T05:23:44;8.02;;;3.47;;
78674;SDS011;67990;59.826;30.108;2023-04-25T05:29:37;7.45;;;3.33;;
78674;SDS011;67990;59.826;30.108;2023-04-25T05:32:27;6.32;;;3.13;;
78674;SDS011;67990;59.826;30.108;2023-04-25T05:34:55;6.53;;;3.23;;
78674;SDS011;67990;59.826;30.108;2023-04-25T05:37:58;8.40;;;3.38;;
78674;SDS011;67990;59.826;30.108;2023-04-25T05:40:44;8.93;;;3.70;;
78674;SDS011;67990;59.826;30.108;2023-04-25T05:43:26;5.40;;;2.92;;
78674;SDS011;67990;59.826;30.108;2023-04-25T05:46:01;8.30;;;3.95;;
78674;SDS011;67990;59.826;30.108;2023-04-25T05:49:04;7.23;;;3.60;;
78674;SDS011;67990;59.826;30.108;2023-04-25T05:54:59;7.25;;;3.80;;
78674;SDS011;67990;59.826;30.108;2023-04-25T05:57:29;9.68;;;3.88;;
78674;SDS011;67990;59.826;30.108;2023-04-25T05:59:57;11.48;;;4.00;;
78674;SDS011;67990;59.826;30.108;2023-04-25T06:02:46;12.17;;;4.30;;
78674;SDS011;67990;59.826;30.108;2023-04-25T06:05:14;16.40;;;4.30;;
78674;SDS011;67990;59.826;30.108;2023-04-25T06:10:27;7.88;;;4.13;;
78674;SDS011;67990;59.826;30.108;2023-04-25T06:12:54;8.90;;;4.47;;
78674;SDS011;67990;59.826;30.108;2023-04-25T06:15:24;14.03;;;4.77;;
78674;SDS011;67990;59.826;30.108;2023-04-25T06:17:51;10.07;;;4.00;;
78674;SDS011;67990;59.826;30.108;2023-04-25T06:20:36;9.55;;;4.60;;
78674;SDS011;67990;59.826;30.108;2023-04-25T06:23:03;7.72;;;4.32;;
78674;SDS011;67990;59.826;30.108;2023-04-25T06:25:47;9.48;;;4.70;;
78674;SDS011;67990;59.826;30.108;2023-04-25T06:28:15;12.07;;;5.40;;
78674;SDS011;67990;59.826;30.108;2023-04-25T06:30:44;12.67;;;5.70;;
78674;SDS011;67990;59.826;30.108;2023-04-25T06:33:29;8.48;;;5.18;;
78674;SDS011;67990;59.826;30.108;2023-04-25T06:35:56;11.35;;;5.45;;
78674;SDS011;67990;59.826;30.108;2023-04-25T06:38:42;8.40;;;5.45;;
78674;SDS011;67990;59.826;30.108;2023-04-25T06:41:10;9.10;;;4.53;;
78674;SDS011;67990;59.826;30.108;2023-04-25T06:43:37;7.70;;;3.97;;
78674;SDS011;67990;59.826;30.108;2023-04-25T06:46:24;8.77;;;4.93;;
78674;SDS011;67990;59.826;30.108;2023-04-25T06:48:53;10.05;;;5.30;;
78674;SDS011;67990;59.826;30.108;2023-04-25T06:51:40;9.77;;;5.97;;
78674;SDS011;67990;59.826;30.108;2023-04-25T06:54:26;9.65;;;6.05;;
78674;SDS011;67990;59.826;30.108;2023-04-25T06:57:43;8.73;;;6.05;;
78674;SDS011;67990;59.826;30.108;2023-04-25T07:00:51;10.27;;;5.37;;
78674;SDS011;67990;59.826;30.108;2023-04-25T07:03:38;11.67;;;5.73;;
78674;SDS011;67990;59.826;30.108;2023-04-25T07:06:24;7.50;;;6.18;;
78674;SDS011;67990;59.826;30.108;2023-04-25T07:08:53;7.72;;;6.57;;
78674;SDS011;67990;59.826;30.108;2023-04-25T07:11:21;7.93;;;6.38;;
78674;SDS011;67990;59.826;30.108;2023-04-25T07:13:48;9.25;;;6.10;;
78674;SDS011;67990;59.826;30.108;2023-04-25T07:16:15;7.70;;;6.90;;
78674;SDS011;67990;59.826;30.108;2023-04-25T07:19:02;9.80;;;5.30;;
78674;SDS011;67990;59.826;30.108;2023-04-25T07:21:48;7.03;;;6.30;;
78674;SDS011;67990;59.826;30.108;2023-04-25T07:24:15;8.48;;;5.75;;
78674;SDS011;67990;59.826;30.108;2023-04-25T07:26:45;7.22;;;6.05;;
78674;SDS011;67990;59.826;30.108;2023-04-25T07:29:41;9.43;;;5.53;;
78674;SDS011;67990;59.826;30.108;2023-04-25T07:32:08;6.53;;;5.23;;
78674;SDS011;67990;59.826;30.108;2023-04-25T07:34:55;7.25;;;5.93;;
78674;SDS011;67990;59.826;30.108;2023-04-25T07:37:41;5.95;;;5.35;;
78674;SDS011;67990;59.826;30.108;2023-04-25T07:40:11;9.40;;;5.85;;
78674;SDS011;67990;59.826;30.108;2023-04-25T07:42:45;9.43;;;6.72;;
78674;SDS011;67990;59.826;30.108;2023-04-25T07:45:16;7.37;;;4.87;;
78674;SDS011;67990;59.826;30.108;2023-04-25T07:48:02;8.00;;;5.00;;
78674;SDS011;67990;59.826;30.108;2023-04-25T07:50:34;8.98;;;5.13;;
78674;SDS011;67990;59.826;30.108;2023-04-25T07:53:21;11.23;;;4.30;;
78674;SDS011;67990;59.826;30.108;2023-04-25T07:55:53;7.97;;;4.80;;
78674;SDS011;67990;59.826;30.108;2023-04-25T07:58:21;5.33;;;4.50;;
78674;SDS011;67990;59.826;30.108;2023-04-25T08:00:51;6.00;;;4.67;;
78674;SDS011;67990;59.826;30.108;2023-04-25T08:03:38;8.23;;;4.50;;
78674;SDS011;67990;59.826;30.108;2023-04-25T08:06:12;5.95;;;4.70;;
78674;SDS011;67990;59.826;30.108;2023-04-25T08:08:49;7.95;;;4.53;;
78674;SDS011;67990;59.826;30.108;2023-04-25T08:11:19;5.25;;;4.50;;
78674;SDS011;67990;59.826;30.108;2023-04-25T08:13:47;7.03;;;4.40;;
78674;SDS011;67990;59.826;30.108;2023-04-25T08:16:50;7.33;;;3.83;;
78674;SDS011;67990;59.826;30.108;2023-04-25T08:19:18;8.32;;;4.85;;
78674;SDS011;67990;59.826;30.108;2023-04-25T08:21:47;6.25;;;4.28;;
78674;SDS011;67990;59.826;30.108;2023-04-25T08:24:23;7.13;;;5.00;;
78674;SDS011;67990;59.826;30.108;2023-04-25T08:26:50;6.40;;;4.50;;
78674;SDS011;67990;59.826;30.108;2023-04-25T08:29:36;12.90;;;6.67;;
78674;SDS011;67990;59.826;30.108;2023-04-25T08:32:04;15.68;;;7.55;;
78674;SDS011;67990;59.826;30.108;2023-04-25T08:34:33;7.93;;;4.75;;
78674;SDS011;67990;59.826;30.108;2023-04-25T08:37:04;7.68;;;4.25;;
78674;SDS011;67990;59.826;30.108;2023-04-25T08:39:48;11.18;;;5.18;;
78674;SDS011;67990;59.826;30.108;2023-04-25T08:42:36;6.57;;;3.73;;
78674;SDS011;67990;59.826;30.108;2023-04-25T08:45:05;4.57;;;3.17;;
78674;SDS011;67990;59.826;30.108;2023-04-25T08:47:37;4.90;;;3.97;;
78674;SDS011;67990;59.826;30.108;2023-04-25T08:50:24;7.70;;;4.30;;
78674;SDS011;67990;59.826;30.108;2023-04-25T08:52:54;10.70;;;4.03;;
78674;SDS011;67990;59.826;30.108;2023-04-25T08:55:27;7.18;;;4.53;;
78674;SDS011;67990;59.826;30.108;2023-04-25T08:57:58;8.37;;;4.50;;
78674;SDS011;67990;59.826;30.108;2023-04-25T09:00:27;7.38;;;4.47;;
78674;SDS011;67990;59.826;30.108;2023-04-25T09:02:55;6.88;;;4.25;;
78674;SDS011;67990;59.826;30.108;2023-04-25T09:05:28;5.90;;;3.38;;
78674;SDS011;67990;59.826;30.108;2023-04-25T09:07:56;6.13;;;3.90;;
78674;SDS011;67990;59.826;30.108;2023-04-25T09:10:42;4.63;;;3.13;;
78674;SDS011;67990;59.826;30.108;2023-04-25T09:13:28;5.57;;;3.60;;
78674;SDS011;67990;59.826;30.108;2023-04-25T09:16:22;5.80;;;3.40;;
78674;SDS011;67990;59.826;30.108;2023-04-25T09:19:20;5.70;;;3.47;;
78674;SDS011;67990;59.826;30.108;2023-04-25T09:21:49;6.90;;;3.50;;
78674;SDS011;67990;59.826;30.108;2023-04-25T09:24:18;5.93;;;3.75;;
78674;SDS011;67990;59.826;30.108;2023-04-25T09:26:56;9.43;;;3.60;;
78674;SDS011;67990;59.826;30.108;2023-04-25T09:29:28;5.60;;;3.50;;
78674;SDS011;67990;59.826;30.108;2023-04-25T09:34:46;5.43;;;3.50;;
78674;SDS011;67990;59.826;30.108;2023-04-25T09:37:33;10.65;;;3.88;;
78674;SDS011;67990;59.826;30.108;2023-04-25T09:40:20;6.00;;;2.90;;
78674;SDS011;67990;59.826;30.108;2023-04-25T09:43:18;6.43;;;2.90;;
78674;SDS011;67990;59.826;30.108;2023-04-25T09:45:47;7.65;;;2.90;;
78674;SDS011;67990;59.826;30.108;2023-04-25T09:48:16;8.50;;;3.50;;
78674;SDS011;67990;59.826;30.108;2023-04-25T09:50:47;9.15;;;3.58;;
78674;SDS011;67990;59.826;30.108;2023-04-25T09:53:31;6.90;;;3.03;;
78674;SDS011;67990;59.826;30.108;2023-04-25T09:56:18;6.23;;;3.20;;
78674;SDS011;67990;59.826;30.108;2023-04-25T09:58:48;8.13;;;3.40;;
78674;SDS011;67990;59.826;30.108;2023-04-25T10:01:36;6.75;;;3.60;;
78674;SDS011;67990;59.826;30.108;2023-04-25T10:04:32;4.80;;;3.30;;
78674;SDS011;67990;59.826;30.108;2023-04-25T10:07:05;4.78;;;2.80;;
78674;SDS011;67990;59.826;30.108;2023-04-25T10:09:35;5.05;;;2.70;;
78674;SDS011;67990;59.826;30.108;2023-04-25T10:12:06;5.17;;;2.70;;
78674;SDS011;67990;59.826;30.108;2023-04-25T10:14:34;8.37;;;4.30;;
78674;SDS011;67990;59.826;30.108;2023-04-25T10:17:01;5.38;;;3.10;;
78674;SDS011;67990;59.826;30.108;2023-04-25T10:19:29;5.38;;;3.30;;
78674;SDS011;67990;59.826;30.108;2023-04-25T10:22:03;6.80;;;3.30;;
78674;SDS011;67990;59.826;30.108;2023-04-25T10:27:20;5.78;;;3.08;;
78674;SDS011;67990;59.826;30.108;2023-04-25T10:29:59;6.00;;;3.57;;
78674;SDS011;67990;59.826;30.108;2023-04-25T10:32:27;4.43;;;2.72;;
78674;SDS011;67990;59.826;30.108;2023-04-25T10:38:00;5.35;;;2.38;;
78674;SDS011;67990;59.826;30.108;2023-04-25T10:40:30;4.78;;;2.67;;
78674;SDS011;67990;59.826;30.108;2023-04-25T10:49:09;6.60;;;2.08;;
78674;SDS011;67990;59.826;30.108;2023-04-25T10:54:55;5.28;;;2.65;;
78674;SDS011;67990;59.826;30.108;2023-04-25T10:57:27;5.32;;;2.55;;
78674;SDS011;67990;59.826;30.108;2023-04-25T11:00:01;7.40;;;2.85;;
78674;SDS011;67990;59.826;30.108;2023-04-25T11:02:36;6.63;;;3.20;;
78674;SDS011;67990;59.826;30.108;2023-04-25T11:05:04;7.27;;;3.10;;
78674;SDS011;67990;59.826;30.108;2023-04-25T11:07:42;5.97;;;3.60;;
78674;SDS011;67990;59.826;30.108;2023-04-25T11:10:15;5.55;;;2.50;;
78674;SDS011;67990;59.826;30.108;2023-04-25T11:12:42;4.55;;;2.28;;
78674;SDS011;67990;59.826;30.108;2023-04-25T11:15:12;5.05;;;2.60;;
78674;SDS011;67990;59.826;30.108;2023-04-25T11:17:57;5.60;;;2.67;;
78674;SDS011;67990;59.826;30.108;2023-04-25T11:20:43;6.57;;;2.70;;
78674;SDS011;67990;59.826;30.108;2023-04-25T11:25:56;4.25;;;2.15;;
78674;SDS011;67990;59.826;30.108;2023-04-25T11:28:44;5.38;;;2.53;;
78674;SDS011;67990;59.826;30.108;2023-04-25T11:31:13;6.03;;;2.58;;
78674;SDS011;67990;59.826;30.108;2023-04-25T11:33:40;7.20;;;2.53;;
78674;SDS011;67990;59.826;30.108;2023-04-25T11:36:09;9.50;;;2.53;;
78674;SDS011;67990;59.826;30.108;2023-04-25T11:38:36;6.37;;;3.00;;
78674;SDS011;67990;59.826;30.108;2023-04-25T11:41:04;11.00;;;5.78;;
78674;SDS011;67990;59.826;30.108;2023-04-25T11:43:31;9.60;;;4.05;;
78674;SDS011;67990;59.826;30.108;2023-04-25T11:45:59;5.65;;;2.88;;
78674;SDS011;67990;59.826;30.108;2023-04-25T11:48:27;8.77;;;2.65;;
78674;SDS011;67990;59.826;30.108;2023-04-25T11:53:49;5.27;;;2.67;;
78674;SDS011;67990;59.826;30.108;2023-04-25T11:56:16;5.75;;;2.63;;
78674;SDS011;67990;59.826;30.108;2023-04-25T11:59:01;5.78;;;2.90;;
78674;SDS011;67990;59.826;30.108;2023-04-25T12:02:06;5.95;;;2.45;;
78674;SDS011;67990;59.826;30.108;2023-04-25T12:04:35;5.60;;;2.20;;
78674;SDS011;67990;59.826;30.108;2023-04-25T12:07:03;7.83;;;2.50;;
78674;SDS011;67990;59.826;30.108;2023-04-25T12:09:51;6.03;;;2.40;;
78674;SDS011;67990;59.826;30.108;2023-04-25T12:12:20;5.13;;;2.33;;
78674;SDS011;67990;59.826;30.108;2023-04-25T12:15:08;5.25;;;2.70;;
78674;SDS011;67990;59.826;30.108;2023-04-25T12:17:36;5.10;;;2.55;;
78674;SDS011;67990;59.826;30.108;2023-04-25T12:20:10;6.18;;;2.03;;
78674;SDS011;67990;59.826;30.108;2023-04-25T12:22:40;4.80;;;2.30;;
78674;SDS011;67990;59.826;30.108;2023-04-25T12:25:10;5.13;;;2.73;;
78674;SDS011;67990;59.826;30.108;2023-04-25T12:28:08;6.32;;;2.95;;
78674;SDS011;67990;59.826;30.108;2023-04-25T12:30:54;7.47;;;3.33;;
78674;SDS011;67990;59.826;30.108;2023-04-25T12:33:43;7.65;;;2.30;;
78674;SDS011;67990;59.826;30.108;2023-04-25T12:36:14;5.82;;;2.42;;
78674;SDS011;67990;59.826;30.108;2023-04-25T12:38:42;4.50;;;2.20;;
78674;SDS011;67990;59.826;30.108;2023-04-25T12:41:09;4.97;;;2.40;;
78674;SDS011;67990;59.826;30.108;2023-04-25T12:43:36;8.07;;;3.13;;
78674;SDS011;67990;59.826;30.108;2023-04-25T12:46:03;5.60;;;2.80;;
78674;SDS011;67990;59.826;30.108;2023-04-25T12:48:30;9.10;;;2.45;;
78674;SDS011;67990;59.826;30.108;2023-04-25T12:50:58;5.95;;;2.58;;
78674;SDS011;67990;59.826;30.108;2023-04-25T12:53:45;6.73;;;2.90;;
78674;SDS011;67990;59.826;30.108;2023-04-25T12:58:58;5.90;;;2.20;;
78674;SDS011;67990;59.826;30.108;2023-04-25T13:01:43;5.32;;;2.45;;
78674;SDS011;67990;59.826;30.108;2023-04-25T13:04:10;6.82;;;3.00;;
78674;SDS011;67990;59.826;30.108;2023-04-25T13:06:37;6.28;;;2.75;;
78674;SDS011;67990;59.826;30.108;2023-04-25T13:09:06;5.30;;;2.40;;
78674;SDS011;67990;59.826;30.108;2023-04-25T13:11:33;7.57;;;2.43;;
78674;SDS011;67990;59.826;30.108;2023-04-25T13:14:01;5.15;;;2.17;;
78674;SDS011;67990;59.826;30.108;2023-04-25T13:16:28;6.53;;;2.22;;
78674;SDS011;67990;59.826;30.108;2023-04-25T13:19:13;7.30;;;2.75;;
78674;SDS011;67990;59.826;30.108;2023-04-25T13:21:40;8.65;;;3.00;;
78674;SDS011;67990;59.826;30.108;2023-04-25T13:24:08;5.03;;;2.27;;
78674;SDS011;67990;59.826;30.108;2023-04-25T13:26:35;5.03;;;2.20;;
78674;SDS011;67990;59.826;30.108;2023-04-25T13:29:21;4.72;;;2.45;;
78674;SDS011;67990;59.826;30.108;2023-04-25T13:32:08;15.23;;;3.83;;
78674;SDS011;67990;59.826;30.108;2023-04-25T13:34:35;10.98;;;3.28;;
78674;SDS011;67990;59.826;30.108;2023-04-25T13:37:02;5.55;;;3.30;;
78674;SDS011;67990;59.826;30.108;2023-04-25T13:39:48;6.17;;;2.37;;
78674;SDS011;67990;59.826;30.108;2023-04-25T13:42:15;5.87;;;2.23;;
78674;SDS011;67990;59.826;30.108;2023-04-25T13:44:42;9.00;;;3.40;;
78674;SDS011;67990;59.826;30.108;2023-04-25T13:47:09;5.93;;;2.47;;
78674;SDS011;67990;59.826;30.108;2023-04-25T13:49:37;10.73;;;2.90;;
78674;SDS011;67990;59.826;30.108;2023-04-25T13:52:04;11.85;;;2.60;;
78674;SDS011;67990;59.826;30.108;2023-04-25T13:54:31;6.30;;;2.50;;
78674;SDS011;67990;59.826;30.108;2023-04-25T13:57:18;6.17;;;2.27;;
78674;SDS011;67990;59.826;30.108;2023-04-25T13:59:46;6.43;;;2.42;;
78674;SDS011;67990;59.826;30.108;2023-04-25T14:02:13;6.47;;;2.40;;
78674;SDS011;67990;59.826;30.108;2023-04-25T14:04:40;6.53;;;2.20;;
78674;SDS011;67990;59.826;30.108;2023-04-25T14:07:26;5.72;;;2.42;;
78674;SDS011;67990;59.826;30.108;2023-04-25T14:09:53;4.57;;;2.20;;
78674;SDS011;67990;59.826;30.108;2023-04-25T14:12:23;5.50;;;2.20;;
78674;SDS011;67990;59.826;30.108;2023-04-25T14:14:51;6.68;;;3.63;;
78674;SDS011;67990;59.826;30.108;2023-04-25T14:17:37;5.97;;;2.65;;
78674;SDS011;67990;59.826;30.108;2023-04-25T14:20:22;5.80;;;2.33;;
78674;SDS011;67990;59.826;30.108;2023-04-25T14:22:49;6.75;;;2.83;;
78674;SDS011;67990;59.826;30.108;2023-04-25T14:25:17;10.20;;;2.67;;
78674;SDS011;67990;59.826;30.108;2023-04-25T14:27:46;10.03;;;2.83;;
78674;SDS011;67990;59.826;30.108;2023-04-25T14:33:17;8.10;;;3.00;;
78674;SDS011;67990;59.826;30.108;2023-04-25T14:35:44;6.63;;;3.10;;
78674;SDS011;67990;59.826;30.108;2023-04-25T14:38:30;6.72;;;3.25;;
78674;SDS011;67990;59.826;30.108;2023-04-25T14:41:15;6.50;;;2.17;;
78674;SDS011;67990;59.826;30.108;2023-04-25T14:44:02;7.77;;;2.80;;
78674;SDS011;67990;59.826;30.108;2023-04-25T14:46:48;7.85;;;2.97;;
78674;SDS011;67990;59.826;30.108;2023-04-25T14:49:17;7.88;;;2.70;;
78674;SDS011;67990;59.826;30.108;2023-04-25T14:51:44;11.35;;;3.10;;
78674;SDS011;67990;59.826;30.108;2023-04-25T14:54:30;11.63;;;3.30;;
78674;SDS011;67990;59.826;30.108;2023-04-25T14:59:46;9.57;;;3.90;;
78674;SDS011;67990;59.826;30.108;2023-04-25T15:02:31;10.68;;;3.70;;
78674;SDS011;67990;59.826;30.108;2023-04-25T15:04:59;10.00;;;3.58;;
78674;SDS011;67990;59.826;30.108;2023-04-25T15:07:45;9.07;;;2.95;;
78674;SDS011;67990;59.826;30.108;2023-04-25T15:10:13;12.02;;;3.83;;
78674;SDS011;67990;59.826;30.108;2023-04-25T15:18:16;6.57;;;3.03;;
78674;SDS011;67990;59.826;30.108;2023-04-25T15:20:44;6.00;;;2.85;;
78674;SDS011;67990;59.826;30.108;2023-04-25T15:23:29;9.27;;;2.90;;
78674;SDS011;67990;59.826;30.108;2023-04-25T15:25:56;6.55;;;2.55;;
78674;SDS011;67990;59.826;30.108;2023-04-25T15:28:42;6.38;;;2.60;;
78674;SDS011;67990;59.826;30.108;2023-04-25T15:34:32;7.95;;;2.80;;
78674;SDS011;67990;59.826;30.108;2023-04-25T15:40:05;8.30;;;2.55;;
78674;SDS011;67990;59.826;30.108;2023-04-25T15:42:51;8.32;;;2.95;;
78674;SDS011;67990;59.826;30.108;2023-04-25T15:45:19;7.47;;;2.63;;
78674;SDS011;67990;59.826;30.108;2023-04-25T15:48:06;9.40;;;3.93;;
78674;SDS011;67990;59.826;30.108;2023-04-25T15:50:33;23.08;;;9.55;;
78674;SDS011;67990;59.826;30.108;2023-04-25T15:53:01;14.30;;;5.38;;
78674;SDS011;67990;59.826;30.108;2023-04-25T15:55:29;10.85;;;3.25;;
78674;SDS011;67990;59.826;30.108;2023-04-25T15:57:56;6.38;;;2.80;;
78674;SDS011;67990;59.826;30.108;2023-04-25T16:00:42;11.97;;;2.67;;
78674;SDS011;67990;59.826;30.108;2023-04-25T16:03:11;9.40;;;2.90;;
78674;SDS011;67990;59.826;30.108;2023-04-25T16:05:38;12.27;;;3.40;;
78674;SDS011;67990;59.826;30.108;2023-04-25T16:08:05;8.82;;;3.90;;
78674;SDS011;67990;59.826;30.108;2023-04-25T16:10:32;8.70;;;3.25;;
78674;SDS011;67990;59.826;30.108;2023-04-25T16:12:59;14.15;;;3.50;;
78674;SDS011;67990;59.826;30.108;2023-04-25T16:15:27;12.77;;;3.50;;
78674;SDS011;67990;59.826;30.108;2023-04-25T16:17:54;8.20;;;2.92;;
78674;SDS011;67990;59.826;30.108;2023-04-25T16:20:23;10.50;;;3.53;;
78674;SDS011;67990;59.826;30.108;2023-04-25T16:23:09;11.13;;;3.35;;
78674;SDS011;67990;59.826;30.108;2023-04-25T16:25:36;10.23;;;2.90;;
78674;SDS011;67990;59.826;30.108;2023-04-25T16:28:22;21.90;;;3.63;;
78674;SDS011;67990;59.826;30.108;2023-04-25T16:30:49;12.33;;;3.87;;